Time;durP1;ratioP1;P1;durP2;ratioP2;P2;SDS_P1;SDS_P2;PMS_P1;PMS_P2;Temp;Humidity;BMP_temperature;BMP_pressure;BME280_temperature;BME280_humidity;BME280_pressure;Samples;Min_cycle;Max_cycle;Signal;HPM_P1;HPM_P2
2021/05/30 00:02:01;;;;;;;;;;;;;;;22.62;59.39;101169.94;5088907;28;1330;-63
2021/05/30 00:04:46;;;;;;;;;;;;;;;22.62;59.43;101164.63;5089064;28;1992;-63
2021/05/30 00:07:32;;;;;;;;;;;;;;;22.63;59.43;101163.69;5088818;28;1276;-63
2021/05/30 00:10:17;;;;;;;;;;;;;;;22.62;59.35;101165.47;5089026;28;1096;-63
2021/05/30 00:13:04;;;;;;;;;;;;;;;22.63;59.38;101164.53;5087462;28;1394;-63
2021/05/30 00:15:49;;;;;;;;;;;;;;;22.62;59.52;101162.81;5088379;28;1263;-63
2021/05/30 00:18:34;;;;;;;;;;;;;;;22.62;59.51;101160.16;5088637;28;1111;-62
2021/05/30 00:21:20;;;;;;;;;;;;;;;22.62;59.57;101159.31;5088505;28;1367;-63
2021/05/30 00:24:05;;;;;;;;;;;;;;;22.62;59.39;101162.81;5088919;28;1054;-63
2021/05/30 00:26:51;;;;;;;;;;;;;;;22.63;59.48;101161.03;5088466;28;1303;-63
2021/05/30 00:29:36;;;;;;;;;;;;;;;22.63;59.24;101158.38;5088676;28;1144;-62
2021/05/30 00:32:21;;;;;;;;;;;;;;;22.63;59.32;101153.91;5088439;28;1284;-63
2021/05/30 00:35:07;;;;;;;;;;;;;;;22.63;59.36;101155.72;5088147;28;949;-63
2021/05/30 00:37:52;;;;;;;;;;;;;;;22.63;59.34;101147.75;5088692;28;1275;-62
2021/05/30 00:40:40;;;;;;;;;;;;;;;22.63;59.47;101147.75;5087675;28;1060;-63
2021/05/30 00:43:26;;;;;;;;;;;;;;;22.63;59.41;101143.28;5092451;28;968;-64
2021/05/30 00:46:11;;;;;;;;;;;;;;;22.63;59.42;101145.94;5092597;28;1902;-63
2021/05/30 00:48:56;;;;;;;;;;;;;;;22.63;59.33;101139.78;5092442;28;1102;-62
2021/05/30 00:51:45;;;;;;;;;;;;;;;22.63;59.23;101131.81;5092138;28;1251;-63
2021/05/30 00:54:30;;;;;;;;;;;;;;;22.63;59.44;101130.03;5092455;28;1045;-62
2021/05/30 00:57:16;;;;;;;;;;;;;;;22.63;59.36;101131.81;5091954;28;1282;-63
2021/05/30 01:00:03;;;;;;;;;;;;;;;22.63;59.22;101129.16;5092183;28;1092;-63
2021/05/30 01:02:48;;;;;;;;;;;;;;;22.64;59.11;101130.88;5091949;28;1272;-63
2021/05/30 01:05:33;;;;;;;;;;;;;;;22.63;59.38;101137.13;5092299;28;1909;-63
2021/05/30 01:08:26;;;;;;;;;;;;;;;22.64;59.38;101138.84;5092004;28;703;-63
2021/05/30 01:11:15;;;;;;;;;;;;;;;22.64;59.34;101136.19;5092104;28;1379;-63
2021/05/30 01:14:01;;;;;;;;;;;;;;;22.64;59.31;101130.88;5091819;28;1051;-63
2021/05/30 01:16:47;;;;;;;;;;;;;;;22.64;59.37;101130.88;5090445;28;1303;-63
2021/05/30 01:19:33;;;;;;;;;;;;;;;22.61;59.15;101123.97;5090268;28;1017;-63
2021/05/30 01:22:19;;;;;;;;;;;;;;;22.65;59.30;101132.59;5091588;28;1392;-63
2021/05/30 01:25:05;;;;;;;;;;;;;;;22.64;59.23;101133.53;5091842;28;1898;-63
2021/05/30 01:27:51;;;;;;;;;;;;;;;22.65;59.16;101137.91;5092034;28;1255;-63
2021/05/30 01:30:37;;;;;;;;;;;;;;;22.64;59.02;101134.38;5091794;28;1124;-62
2021/05/30 01:33:22;;;;;;;;;;;;;;;22.65;59.14;101132.59;5091474;28;651;-62
2021/05/30 01:36:07;;;;;;;;;;;;;;;22.64;59.06;101137.03;5091268;28;1307;-62
2021/05/30 01:38:53;;;;;;;;;;;;;;;22.65;59.38;101137.91;5091424;28;1067;-62
2021/05/30 01:41:38;;;;;;;;;;;;;;;22.65;59.17;101136.09;5090344;28;1405;-63
2021/05/30 01:44:23;;;;;;;;;;;;;;;22.65;59.19;101144.06;5091614;28;933;-63
2021/05/30 01:47:08;;;;;;;;;;;;;;;22.64;59.05;101137.03;5091535;28;1280;-63
2021/05/30 01:49:53;;;;;;;;;;;;;;;22.65;58.98;101128.13;5090131;28;1051;-63
2021/05/30 01:52:39;;;;;;;;;;;;;;;22.64;59.25;101125.56;5090414;28;1269;-63
2021/05/30 01:55:43;;;;;;;;;;;;;;;22.64;59.26;101123.75;5089687;28;1041;-63
2021/05/30 01:58:28;;;;;;;;;;;;;;;22.65;59.09;101109.53;5090406;28;1064;-63
2021/05/30 02:01:14;;;;;;;;;;;;;;;22.65;59.12;101114.00;5090797;28;1296;-63
2021/05/30 02:04:02;;;;;;;;;;;;;;;22.65;58.92;101106.88;5091354;28;1095;-61
2021/05/30 02:06:48;;;;;;;;;;;;;;;22.66;59.01;101102.44;5090998;28;1979;-63
2021/05/30 02:09:35;;;;;;;;;;;;;;;22.65;58.92;101090.97;5091222;28;1020;-63
2021/05/30 02:12:21;;;;;;;;;;;;;;;22.65;58.98;101090.97;5090761;28;1271;-63
2021/05/30 02:15:07;;;;;;;;;;;;;;;22.65;59.22;101095.41;5090824;28;1044;-64
2021/05/30 02:17:52;;;;;;;;;;;;;;;22.65;59.11;101088.31;5089684;28;1288;-63
2021/05/30 02:20:39;;;;;;;;;;;;;;;22.65;59.26;101100.72;5091107;28;1138;-63
2021/05/30 02:23:25;;;;;;;;;;;;;;;22.65;58.96;101101.59;5090810;28;724;-63
2021/05/30 02:26:10;;;;;;;;;;;;;;;22.66;59.21;101100.63;5090816;28;1905;-65
2021/05/30 02:28:56;;;;;;;;;;;;;;;22.65;58.89;101090.97;5090663;28;1114;-63
2021/05/30 02:31:41;;;;;;;;;;;;;;;22.66;59.05;101086.50;5090935;28;1280;-64
2021/05/30 02:34:26;;;;;;;;;;;;;;;22.66;59.13;101097.97;5090701;28;964;-65
2021/05/30 02:37:13;;;;;;;;;;;;;;;22.66;59.00;101103.28;5090421;28;1366;-64
2021/05/30 02:39:58;;;;;;;;;;;;;;;22.66;58.96;101105.94;5090629;28;1084;-63
2021/05/30 02:42:44;;;;;;;;;;;;;;;22.66;58.96;101095.31;5090489;28;1284;-64
2021/05/30 02:45:29;;;;;;;;;;;;;;;22.66;59.16;101087.34;5089200;28;1906;-63
2021/05/30 02:48:15;;;;;;;;;;;;;;;22.66;59.07;101086.50;5089920;28;722;-64
2021/05/30 02:51:00;;;;;;;;;;;;;;;22.67;58.85;101085.56;5090188;28;1373;-64
2021/05/30 02:53:45;;;;;;;;;;;;;;;22.67;59.10;101082.91;5090403;28;1051;-64
2021/05/30 02:56:30;;;;;;;;;;;;;;;22.66;59.02;101092.66;5089877;28;1276;-63
2021/05/30 02:59:16;;;;;;;;;;;;;;;22.66;59.15;101091.81;5090011;28;1080;-63
2021/05/30 03:02:02;;;;;;;;;;;;;;;22.68;58.93;101088.09;5089902;28;1264;-63
2021/05/30 03:04:47;;;;;;;;;;;;;;;22.67;58.72;101077.59;5090009;28;1898;-63
2021/05/30 03:07:33;;;;;;;;;;;;;;;22.67;59.19;101077.59;5089794;28;1358;-63
2021/05/30 03:10:18;;;;;;;;;;;;;;;22.67;59.02;101078.44;5090139;28;1185;-63
2021/05/30 03:13:03;;;;;;;;;;;;;;;22.67;58.81;101075.78;5089683;28;1323;-63
2021/05/30 03:15:48;;;;;;;;;;;;;;;22.66;58.83;101076.75;5089825;28;1253;-63
2021/05/30 03:18:34;;;;;;;;;;;;;;;22.67;58.78;101073.13;5088539;28;1094;-63
2021/05/30 03:21:19;;;;;;;;;;;;;;;22.67;58.97;101072.28;5089568;28;1356;-63
2021/05/30 03:24:05;;;;;;;;;;;;;;;22.64;59.01;101072.47;5089686;28;992;-63
2021/05/30 03:26:51;;;;;;;;;;;;;;;22.67;59.05;101072.28;5089743;28;1902;-63
2021/05/30 03:29:36;;;;;;;;;;;;;;;22.67;58.89;101061.66;5089659;28;1076;-63
2021/05/30 03:32:22;;;;;;;;;;;;;;;22.67;58.65;101066.97;5089613;28;1376;-63
2021/05/30 03:35:07;;;;;;;;;;;;;;;22.68;58.75;101068.66;5089562;28;924;-64
2021/05/30 03:37:53;;;;;;;;;;;;;;;22.67;58.72;101062.53;5089160;28;1269;-63
2021/05/30 03:40:50;;;;;;;;;;;;;;;22.68;59.00;101060.69;5089412;28;1036;-63
2021/05/30 03:43:35;;;;;;;;;;;;;;;22.68;58.57;101055.38;5089062;28;919;-64
2021/05/30 03:46:21;;;;;;;;;;;;;;;22.68;59.08;101058.03;5089103;28;1910;-64
2021/05/30 03:49:08;;;;;;;;;;;;;;;22.67;58.88;101059.88;5089092;28;1041;-64
2021/05/30 03:51:53;;;;;;;;;;;;;;;22.68;59.04;101058.03;5088975;28;1515;-63
2021/05/30 03:54:39;;;;;;;;;;;;;;;22.68;59.02;101055.38;5089162;28;1052;-63
2021/05/30 03:57:24;;;;;;;;;;;;;;;22.68;59.01;101068.66;5087567;28;1161;-63
2021/05/30 04:00:11;;;;;;;;;;;;;;;22.67;58.96;101075.78;5089132;28;1036;-63
2021/05/30 04:02:56;;;;;;;;;;;;;;;22.68;58.93;101079.28;5089230;28;1300;-63
2021/05/30 04:05:41;;;;;;;;;;;;;;;22.68;58.64;101090.75;5089257;28;1902;-64
2021/05/30 04:08:27;;;;;;;;;;;;;;;22.69;58.73;101091.59;5088757;28;937;-63
2021/05/30 04:11:12;;;;;;;;;;;;;;;22.69;58.70;101096.91;5088735;28;1276;-63
2021/05/30 04:13:57;;;;;;;;;;;;;;;22.68;59.05;101101.38;5088827;28;1172;-63
2021/05/30 04:16:43;;;;;;;;;;;;;;;22.68;58.85;101105.81;5088310;28;1353;-63
2021/05/30 04:19:28;;;;;;;;;;;;;;;22.69;58.81;101110.19;5089228;28;1059;-64
2021/05/30 04:22:13;;;;;;;;;;;;;;;22.68;58.80;101104.03;5088655;28;1360;-63
2021/05/30 04:24:59;;;;;;;;;;;;;;;22.68;58.78;101100.50;5088548;28;1119;-63
2021/05/30 04:27:45;;;;;;;;;;;;;;;22.68;58.93;101098.72;5088812;28;1339;-63
2021/05/30 04:30:31;;;;;;;;;;;;;;;22.68;58.88;101104.03;5089130;28;1035;-64
2021/05/30 04:33:20;;;;;;;;;;;;;;;22.69;58.63;101086.28;5088606;28;761;-64
2021/05/30 04:36:06;;;;;;;;;;;;;;;22.68;58.77;101095.22;5088547;28;1271;-63
2021/05/30 04:38:51;;;;;;;;;;;;;;;22.68;59.01;101095.22;5088516;28;1143;-65
2021/05/30 04:41:36;;;;;;;;;;;;;;;22.69;58.94;101099.56;5088144;28;1271;-64
2021/05/30 04:44:21;;;;;;;;;;;;;;;22.69;58.77;101107.53;5088350;28;1066;-64
2021/05/30 04:47:07;;;;;;;;;;;;;;;22.69;58.77;101103.09;5088489;28;1898;-65
2021/05/30 04:49:52;;;;;;;;;;;;;;;22.69;58.84;101108.41;5088791;28;953;-64
2021/05/30 04:52:38;;;;;;;;;;;;;;;22.69;59.04;101094.25;5088619;28;1292;-64
2021/05/30 04:55:23;;;;;;;;;;;;;;;22.69;58.80;101103.09;5088744;28;1159;-64
2021/05/30 04:58:09;;;;;;;;;;;;;;;22.69;58.74;101111.06;5088263;28;659;-63
2021/05/30 05:00:54;;;;;;;;;;;;;;;22.70;58.88;101109.25;5088406;28;1345;-64
2021/05/30 05:03:40;;;;;;;;;;;;;;;22.64;58.63;101101.66;5088365;28;1079;-63
2021/05/30 05:06:25;;;;;;;;;;;;;;;22.69;58.72;101108.41;5088319;28;1902;-63
2021/05/30 05:09:10;;;;;;;;;;;;;;;22.70;58.83;101101.28;5088769;28;1034;-63
2021/05/30 05:11:55;;;;;;;;;;;;;;;22.69;58.83;101108.41;5087123;28;1263;-62
2021/05/30 05:14:41;;;;;;;;;;;;;;;22.70;58.63;101109.25;5088615;28;1141;-63
2021/05/30 05:17:26;;;;;;;;;;;;;;;22.70;58.60;101103.94;5088267;28;1291;-63
2021/05/30 05:20:11;;;;;;;;;;;;;;;22.70;58.83;101109.25;5088536;28;1043;-64
2021/05/30 05:22:57;;;;;;;;;;;;;;;22.70;58.79;101106.59;5087783;28;1296;-64
2021/05/30 05:25:42;;;;;;;;;;;;;;;22.70;58.58;101109.25;5086952;28;1884;-63
2021/05/30 05:28:28;;;;;;;;;;;;;;;22.70;58.50;101103.94;5089386;28;1027;-62
2021/05/30 05:31:14;;;;;;;;;;;;;;;22.70;58.75;101111.91;5091531;28;1292;-63
2021/05/30 05:33:59;;;;;;;;;;;;;;;22.70;58.95;101109.25;5091726;28;1048;-62
2021/05/30 05:36:45;;;;;;;;;;;;;;;22.70;58.80;101109.25;5091795;28;1360;-64
2021/05/30 05:39:31;;;;;;;;;;;;;;;22.69;58.87;101107.53;5090529;28;1192;-64
2021/05/30 05:42:16;;;;;;;;;;;;;;;22.70;58.62;101112.75;5091869;28;1365;-64
2021/05/30 05:45:02;;;;;;;;;;;;;;;22.71;58.78;101116.25;5091256;28;1080;-64
2021/05/30 05:47:47;;;;;;;;;;;;;;;22.69;58.71;101110.19;5090559;28;1910;-64
2021/05/30 05:50:33;;;;;;;;;;;;;;;22.71;58.88;101110.94;5091698;28;1269;-63
2021/05/30 05:53:19;;;;;;;;;;;;;;;22.70;58.84;101110.09;5091350;28;718;-63
2021/05/30 05:56:04;;;;;;;;;;;;;;;22.70;58.78;101115.41;5091356;28;1367;-64
2021/05/30 05:58:50;;;;;;;;;;;;;;;22.71;58.74;101110.94;5091053;28;913;-63
2021/05/30 06:01:35;;;;;;;;;;;;;;;22.71;58.63;101110.94;5091045;28;1351;-63
2021/05/30 06:04:20;;;;;;;;;;;;;;;22.72;58.57;101104.69;5091204;28;1067;-63
2021/05/30 06:07:06;;;;;;;;;;;;;;;22.71;58.85;101108.28;5090786;28;1961;-64
2021/05/30 06:09:51;;;;;;;;;;;;;;;22.71;58.58;101108.28;5091296;28;1006;-64
2021/05/30 06:12:36;;;;;;;;;;;;;;;22.72;58.72;101110.84;5090750;28;1260;-64
2021/05/30 06:15:22;;;;;;;;;;;;;;;22.72;58.68;101102.03;5091174;28;1050;-64
2021/05/30 06:18:15;;;;;;;;;;;;;;;22.72;58.60;101102.88;5090438;28;1335;-64
2021/05/30 06:21:00;;;;;;;;;;;;;;;22.72;58.58;101102.03;5090533;28;1216;-63
2021/05/30 06:23:45;;;;;;;;;;;;;;;22.71;58.65;101098.50;5090658;28;936;-64
2021/05/30 06:26:31;;;;;;;;;;;;;;;22.71;58.76;101095.00;5090548;28;1902;-63
2021/05/30 06:29:16;;;;;;;;;;;;;;;22.72;58.81;101099.38;5090640;28;1120;-64
2021/05/30 06:32:01;;;;;;;;;;;;;;;22.71;58.61;101100.31;5090450;28;1306;-63
2021/05/30 06:34:46;;;;;;;;;;;;;;;22.71;58.68;101105.63;5089249;28;939;-64
2021/05/30 06:37:32;;;;;;;;;;;;;;;22.72;58.97;101096.72;5090229;28;1243;-64
2021/05/30 06:40:17;;;;;;;;;;;;;;;22.71;58.73;101101.16;5089956;28;1050;-63
2021/05/30 06:43:03;;;;;;;;;;;;;;;22.72;58.79;101102.03;5090229;28;1286;-64
2021/05/30 06:45:48;;;;;;;;;;;;;;;22.71;58.59;101095.84;5090465;28;1917;-63
2021/05/30 06:48:33;;;;;;;;;;;;;;;22.72;58.82;101092.25;5090278;28;1123;-63
2021/05/30 06:51:20;;;;;;;;;;;;;;;22.73;58.90;101098.41;5090371;28;1310;-63
2021/05/30 06:54:08;;;;;;;;;;;;;;;22.72;58.91;101102.03;5090142;28;964;-63
2021/05/30 06:56:54;;;;;;;;;;;;;;;22.72;58.88;101100.22;5090207;28;1269;-63
2021/05/30 06:59:39;;;;;;;;;;;;;;;22.73;58.69;101117.00;5090397;28;1026;-63
2021/05/30 07:02:25;;;;;;;;;;;;;;;22.74;58.99;101108.06;5089828;28;1319;-63
2021/05/30 07:05:10;;;;;;;;;;;;;;;22.72;58.91;101102.88;5090224;28;1039;-64
2021/05/30 07:07:57;;;;;;;;;;;;;;;22.72;58.60;101097.56;5089517;28;1977;-63
2021/05/30 07:10:42;;;;;;;;;;;;;;;22.74;58.73;101105.41;5089961;28;1197;-63
2021/05/30 07:13:28;;;;;;;;;;;;;;;22.73;58.73;101103.72;5089627;28;1088;-63
2021/05/30 07:16:13;;;;;;;;;;;;;;;22.74;58.95;101108.06;5089633;28;1242;-63
2021/05/30 07:18:59;;;;;;;;;;;;;;;22.73;58.85;101115.22;5089568;28;1167;-63
2021/05/30 07:21:44;;;;;;;;;;;;;;;22.74;58.66;101118.69;5088654;28;1280;-63
2021/05/30 07:24:29;;;;;;;;;;;;;;;22.73;58.92;101117.00;5089670;28;1038;-63
2021/05/30 07:27:14;;;;;;;;;;;;;;;22.74;58.48;101121.34;5089499;28;1902;-63
2021/05/30 07:30:00;;;;;;;;;;;;;;;22.74;58.70;101124.00;5089346;28;970;-63
2021/05/30 07:32:45;;;;;;;;;;;;;;;22.75;58.66;101123.06;5089166;28;1232;-63
2021/05/30 07:35:32;;;;;;;;;;;;;;;22.74;58.89;101122.19;5088223;28;1075;-63
2021/05/30 07:38:17;;;;;;;;;;;;;;;22.74;58.67;101131.97;5089382;28;702;-63
2021/05/30 07:41:03;;;;;;;;;;;;;;;22.75;58.95;101117.75;5089407;28;1271;-64
2021/05/30 07:43:48;;;;;;;;;;;;;;;22.75;58.87;101128.38;5088525;28;1047;-63
2021/05/30 07:46:33;;;;;;;;;;;;;;;22.74;58.79;101140.78;5088873;28;1898;-62
2021/05/30 07:49:19;;;;;;;;;;;;;;;22.75;58.59;101149.63;5089443;28;1088;-63
2021/05/30 07:52:04;;;;;;;;;;;;;;;22.75;58.72;101161.09;5088358;28;1648;-63
2021/05/30 07:54:50;;;;;;;;;;;;;;;22.76;58.74;101156.63;5089410;28;955;-64
2021/05/30 07:57:35;;;;;;;;;;;;;;;22.75;58.74;101146.97;5088922;28;1246;-62
2021/05/30 08:00:21;;;;;;;;;;;;;;;22.75;58.80;101144.31;5089285;28;1101;-63
2021/05/30 08:03:07;;;;;;;;;;;;;;;22.76;58.87;101148.66;5088609;28;1296;-64
2021/05/30 08:05:52;;;;;;;;;;;;;;;22.75;58.96;101154.94;5088842;28;1378;-63
2021/05/30 08:08:37;;;;;;;;;;;;;;;22.75;58.93;101150.47;5088709;28;1021;-63
2021/05/30 08:11:23;;;;;;;;;;;;;;;22.76;58.81;101151.31;5088578;28;1230;-64
2021/05/30 08:14:09;;;;;;;;;;;;;;;22.76;58.91;101148.66;5088339;28;1080;-63
2021/05/30 08:17:00;;;;;;;;;;;;;;;22.75;58.87;101149.63;5087959;28;1339;-62
2021/05/30 08:19:45;;;;;;;;;;;;;;;22.76;58.78;101143.34;5088478;28;1066;-63
2021/05/30 08:22:31;;;;;;;;;;;;;;;22.75;58.67;101139.84;5087655;28;1252;-63
2021/05/30 08:25:17;;;;;;;;;;;;;;;22.76;58.81;101143.34;5089250;28;1052;-62
2021/05/30 08:28:08;;;;;;;;;;;;;;;22.77;58.70;101150.34;5088732;28;1909;-63
2021/05/30 08:30:54;;;;;;;;;;;;;;;22.76;58.89;101146.88;5088459;28;1192;-64
2021/05/30 08:33:39;;;;;;;;;;;;;;;22.76;58.78;101144.22;5088526;28;1120;-64
2021/05/30 08:36:26;;;;;;;;;;;;;;;22.76;59.02;101146.88;5088623;28;1247;-63
2021/05/30 08:39:12;;;;;;;;;;;;;;;22.77;58.88;101147.69;5088661;28;1083;-65
2021/05/30 08:41:57;;;;;;;;;;;;;;;22.76;59.09;101144.22;5088766;28;1241;-63
2021/05/30 08:44:42;;;;;;;;;;;;;;;22.76;58.96;101135.41;5088573;28;1043;-64
2021/05/30 08:47:28;;;;;;;;;;;;;;;22.77;58.89;101143.25;5088246;28;1972;-63
2021/05/30 08:50:13;;;;;;;;;;;;;;;22.77;58.81;101140.59;5088345;28;1148;-64
2021/05/30 08:52:59;;;;;;;;;;;;;;;22.77;58.81;101137.06;5088174;28;1362;-63
2021/05/30 08:55:44;;;;;;;;;;;;;;;22.77;58.79;101142.38;5088153;28;1270;-64
2021/05/30 08:58:37;;;;;;;;;;;;;;;22.77;58.92;101147.69;5088258;28;1037;-63
2021/05/30 09:01:23;;;;;;;;;;;;;;;22.77;58.92;101140.59;5088126;28;1366;-65
2021/05/30 09:04:09;;;;;;;;;;;;;;;22.78;58.92;101144.09;5091873;28;1034;-64
2021/05/30 09:06:54;;;;;;;;;;;;;;;22.77;58.87;101143.25;5091526;28;1910;-62
2021/05/30 09:09:44;;;;;;;;;;;;;;;22.77;58.84;101148.56;5092032;28;991;-63
2021/05/30 09:12:34;;;;;;;;;;;;;;;22.78;58.94;101146.75;5092116;28;1314;-63
2021/05/30 09:15:23;;;;;;;;;;;;;;;22.79;58.90;101153.78;5091420;28;1054;-63
2021/05/30 09:18:21;;;;;;;;;;;;;;;22.78;59.03;101149.41;5091615;28;628;-63
2021/05/30 09:21:09;;;;;;;;;;;;;;;22.79;58.91;101156.44;5091459;28;1176;-63
2021/05/30 09:23:55;;;;;;;;;;;;;;;22.79;58.87;101157.28;5091942;28;1119;-64
2021/05/30 09:26:40;;;;;;;;;;;;;;;22.79;58.79;101157.28;5091728;28;1898;-64
2021/05/30 09:29:25;;;;;;;;;;;;;;;22.79;58.71;101154.63;5091820;28;918;-64
2021/05/30 09:32:10;;;;;;;;;;;;;;;22.80;59.02;101160.75;5091906;28;1299;-64
2021/05/30 09:35:01;;;;;;;;;;;;;;;22.79;58.87;101156.44;5090459;28;1115;-64
2021/05/30 09:38:16;;;;;;;;;;;;;;;22.80;59.03;101160.75;5091566;28;1303;-63
2021/05/30 09:41:02;;;;;;;;;;;;;;;22.81;58.95;101163.34;5087745;28;1335;-63
2021/05/30 09:43:51;;;;;;;;;;;;;;;22.80;59.02;101156.31;5091371;28;913;-65
2021/05/30 09:46:36;;;;;;;;;;;;;;;22.80;58.66;101158.09;5091275;28;1969;-64
2021/05/30 09:49:22;;;;;;;;;;;;;;;22.80;58.97;101160.75;5091322;28;1041;-64
2021/05/30 09:52:08;;;;;;;;;;;;;;;22.80;58.71;101158.09;5090767;28;1239;-64
2021/05/30 09:54:54;;;;;;;;;;;;;;;22.81;58.86;101157.16;5091078;28;1028;-64
2021/05/30 09:57:39;;;;;;;;;;;;;;;22.80;58.97;101156.31;5091585;28;1212;-64
2021/05/30 10:00:25;;;;;;;;;;;;;;;22.80;58.90;101148.34;5091222;28;1063;-64
2021/05/30 10:03:10;;;;;;;;;;;;;;;22.81;58.71;101146.53;5091133;28;726;-65
2021/05/30 10:05:56;;;;;;;;;;;;;;;22.82;58.89;101156.22;5091026;28;1281;-64
2021/05/30 10:08:41;;;;;;;;;;;;;;;22.82;58.90;101159.75;5091072;28;1910;-64
2021/05/30 10:11:26;;;;;;;;;;;;;;;22.81;58.97;101155.38;5089566;28;1284;-64
2021/05/30 10:14:12;;;;;;;;;;;;;;;22.81;58.75;101147.41;5090142;28;1128;-64
2021/05/30 10:16:58;;;;;;;;;;;;;;;22.82;58.97;101153.56;5090875;28;1350;-63
2021/05/30 10:19:45;;;;;;;;;;;;;;;22.82;58.98;101153.56;5091213;28;967;-63
2021/05/30 10:22:30;;;;;;;;;;;;;;;22.83;58.97;101155.25;5090490;28;1378;-63
2021/05/30 10:25:24;;;;;;;;;;;;;;;22.82;58.68;101157.09;5089875;28;1163;-63
2021/05/30 10:28:15;;;;;;;;;;;;;;;22.83;59.06;101149.94;5090816;28;1902;-62
2021/05/30 10:31:21;;;;;;;;;;;;;;;22.83;58.98;101155.25;5090309;28;1264;-63
2021/05/30 10:34:09;;;;;;;;;;;;;;;22.85;59.10;101153.34;5090518;28;1032;-64
2021/05/30 10:36:54;;;;;;;;;;;;;;;22.82;59.04;101151.78;5090326;28;1280;-63
2021/05/30 10:39:39;;;;;;;;;;;;;;;22.83;58.80;101150.78;5090226;28;1167;-64
2021/05/30 10:42:25;;;;;;;;;;;;;;;22.84;59.03;101160.47;5090237;28;1334;-64
2021/05/30 10:45:15;;;;;;;;;;;;;;;22.83;58.95;101148.13;5088518;28;1127;-64
2021/05/30 10:48:04;;;;;;;;;;;;;;;22.82;59.06;101151.78;5089859;28;1898;-63
2021/05/30 10:51:00;;;;;;;;;;;;;;;22.83;59.03;101150.78;5090066;28;1185;-63
2021/05/30 10:53:50;;;;;;;;;;;;;;;22.83;59.03;101141.97;5089831;28;919;-63
2021/05/30 10:56:37;;;;;;;;;;;;;;;22.85;58.90;101145.38;5090128;28;1344;-63
2021/05/30 10:59:23;;;;;;;;;;;;;;;22.83;59.04;101142.81;5090237;28;1046;-63
2021/05/30 11:02:13;;;;;;;;;;;;;;;22.85;58.78;101145.38;5089533;28;1263;-63
2021/05/30 11:04:58;;;;;;;;;;;;;;;22.85;59.02;101145.38;5089817;28;1073;-64
2021/05/30 11:07:44;;;;;;;;;;;;;;;22.85;58.93;101142.75;5089069;28;1902;-64
2021/05/30 11:10:29;;;;;;;;;;;;;;;22.86;58.86;101141.75;5088510;28;1073;-62
2021/05/30 11:13:15;;;;;;;;;;;;;;;22.86;58.94;101145.28;5089515;28;671;-63
2021/05/30 11:16:07;;;;;;;;;;;;;;;22.87;58.95;101143.47;5089365;28;1276;-63
2021/05/30 11:18:55;;;;;;;;;;;;;;;22.86;58.83;101153.25;5089515;28;1118;-63
2021/05/30 11:21:44;;;;;;;;;;;;;;;22.87;59.09;101154.09;5089481;28;1383;-62
2021/05/30 11:24:31;;;;;;;;;;;;;;;22.88;58.82;101149.63;5089747;28;1123;-62
2021/05/30 11:27:20;;;;;;;;;;;;;;;22.87;58.88;101154.09;5090008;28;1976;-64
2021/05/30 11:30:11;;;;;;;;;;;;;;;22.86;58.96;101147.06;5089705;28;1335;-62
2021/05/30 11:33:00;;;;;;;;;;;;;;;22.86;59.17;101147.06;5089543;28;1379;-65
2021/05/30 11:35:51;;;;;;;;;;;;;;;22.88;58.85;101147.84;5087985;28;1235;-63
2021/05/30 11:38:40;;;;;;;;;;;;;;;22.88;58.71;101149.63;5089284;28;1117;-63
2021/05/30 11:41:38;;;;;;;;;;;;;;;22.88;58.89;101145.19;5089284;28;1287;-64
2021/05/30 11:44:41;;;;;;;;;;;;;;;22.88;59.03;101136.34;5088564;28;1110;-64
2021/05/30 11:47:26;;;;;;;;;;;;;;;22.89;58.99;101138.06;5089189;28;1901;-63
2021/05/30 11:50:28;;;;;;;;;;;;;;;22.90;58.84;101145.06;5089313;28;1338;-64
2021/05/30 11:53:26;;;;;;;;;;;;;;;22.89;59.01;101138.91;5089075;28;720;-63
2021/05/30 11:56:12;;;;;;;;;;;;;;;22.89;58.97;101138.91;5089024;28;1350;-64
2021/05/30 11:58:58;;;;;;;;;;;;;;;22.91;58.94;101152.09;5088972;28;1011;-64
2021/05/30 12:01:44;;;;;;;;;;;;;;;22.91;58.96;101149.44;5087542;28;1246;-64
2021/05/30 12:04:33;;;;;;;;;;;;;;;22.91;58.97;101144.97;5088806;28;1068;-64
2021/05/30 12:07:19;;;;;;;;;;;;;;;22.91;59.00;101138.81;5087613;28;1897;-64
2021/05/30 12:10:12;;;;;;;;;;;;;;;22.92;58.76;101136.03;5089230;28;949;-64
2021/05/30 12:12:57;;;;;;;;;;;;;;;22.92;58.89;101135.22;5089307;28;1378;-64
2021/05/30 12:15:43;;;;;;;;;;;;;;;22.93;58.83;101132.44;5089445;28;1161;-63
2021/05/30 12:18:28;;;;;;;;;;;;;;;22.93;58.89;101134.22;5087346;28;1030;-63
2021/05/30 12:21:13;;;;;;;;;;;;;;;22.94;58.77;101128.81;5088799;28;1322;-63
2021/05/30 12:23:58;;;;;;;;;;;;;;;22.93;59.02;101115.63;5088383;28;1157;-63
2021/05/30 12:26:45;;;;;;;;;;;;;;;22.88;58.93;101108.00;5088903;28;1255;-63
2021/05/30 12:29:31;;;;;;;;;;;;;;;22.94;59.00;101112.88;5088740;28;908;-62
2021/05/30 12:32:17;;;;;;;;;;;;;;;22.94;58.98;101096.94;5088543;28;1266;-62
2021/05/30 12:35:02;;;;;;;;;;;;;;;22.94;58.94;101099.59;5088584;28;1580;-63
2021/05/30 12:37:48;;;;;;;;;;;;;;;22.95;58.94;101098.63;5090741;28;1261;-63
2021/05/30 12:40:36;;;;;;;;;;;;;;;22.95;59.14;101109.25;5093050;28;1033;-63
2021/05/30 12:43:31;;;;;;;;;;;;;;;22.95;58.93;101103.94;5093045;28;690;-63
2021/05/30 12:46:16;;;;;;;;;;;;;;;22.96;58.80;101097.69;5092465;28;1363;-63
2021/05/30 12:49:13;;;;;;;;;;;;;;;22.97;58.89;101102.06;5091811;28;1906;-63
2021/05/30 12:52:07;;;;;;;;;;;;;;;23.28;59.11;101092.78;5087209;28;1291;-62
2021/05/30 12:54:55;;;;;;;;;;;;;;;23.17;58.60;101104.16;5097238;28;1732;-63
2021/05/30 12:57:47;;;;;;;;;;;;;;;23.21;58.97;101100.34;5099066;28;1371;-62
2021/05/30 13:00:35;;;;;;;;;;;;;;;23.20;58.70;101093.31;5111598;28;1126;-62
2021/05/30 13:03:24;;;;;;;;;;;;;;;23.23;59.19;101098.41;5091231;28;1148;-62
2021/05/30 13:06:10;;;;;;;;;;;;;;;23.24;59.23;101086.84;5089251;28;1294;-64
2021/05/30 13:08:58;;;;;;;;;;;;;;;23.24;58.66;101086.84;5089259;28;1910;-61
2021/05/30 13:11:44;;;;;;;;;;;;;;;23.22;59.26;101075.44;5109470;28;1331;-62
2021/05/30 13:14:31;;;;;;;;;;;;;;;23.21;59.26;101068.44;5110833;28;1053;-63
2021/05/30 13:17:16;;;;;;;;;;;;;;;23.21;58.96;101065.78;5110885;28;1299;-64
2021/05/30 13:20:06;;;;;;;;;;;;;;;23.24;59.07;101064.72;5110280;28;1062;-64
2021/05/30 13:22:55;;;;;;;;;;;;;;;23.24;58.98;101059.41;5110784;28;1379;-64
2021/05/30 13:25:43;;;;;;;;;;;;;;;23.26;58.78;101055.69;5111201;28;1174;-64
2021/05/30 13:28:33;;;;;;;;;;;;;;;23.30;58.53;101046.53;5093628;28;1965;-65
2021/05/30 13:31:19;;;;;;;;;;;;;;;23.33;59.63;101043.66;5089720;28;1253;-68
2021/05/30 13:34:07;;;;;;;;;;;;;;;23.31;58.55;101050.91;5090245;28;1043;-63
2021/05/30 13:36:55;;;;;;;;;;;;;;;23.39;58.75;101040.59;5089720;28;1288;-66
2021/05/30 13:39:41;;;;;;;;;;;;;;;23.46;58.98;101035.69;5089893;28;1034;-67
2021/05/30 13:42:27;;;;;;;;;;;;;;;23.52;58.49;101037.91;5089672;28;1267;-65
2021/05/30 13:45:13;;;;;;;;;;;;;;;23.51;58.96;101030.03;5089034;28;1438;-68
2021/05/30 13:47:58;;;;;;;;;;;;;;;23.51;59.13;101035.34;5078667;28;1968;-65
2021/05/30 13:50:46;;;;;;;;;;;;;;;23.46;58.64;101035.69;5095308;28;1408;-64
2021/05/30 13:53:31;;;;;;;;;;;;;;;23.38;58.76;101033.53;5099059;28;1315;-64
2021/05/30 13:56:17;;;;;;;;;;;;;;;23.36;58.33;101030.16;5089184;28;1271;-65
2021/05/30 13:59:02;;;;;;;;;;;;;;;23.37;58.44;101023.03;5077099;28;1091;-62
2021/05/30 14:01:48;;;;;;;;;;;;;;;23.31;58.63;101015.50;5088378;28;1315;-64
2021/05/30 14:04:33;;;;;;;;;;;;;;;23.33;57.94;101018.88;5088419;28;1094;-62
2021/05/30 14:07:18;;;;;;;;;;;;;;;23.34;58.29;101010.81;5089629;28;1308;-66
2021/05/30 14:10:04;;;;;;;;;;;;;;;23.35;58.38;101007.19;5086651;28;1090;-65
2021/05/30 14:12:51;;;;;;;;;;;;;;;23.33;58.42;101001.13;5084314;28;1421;-64
2021/05/30 14:15:36;;;;;;;;;;;;;;;23.31;58.42;100994.22;5086949;28;1390;-65
2021/05/30 14:18:22;;;;;;;;;;;;;;;23.31;58.72;101000.41;5086970;28;1133;-67
2021/05/30 14:21:07;;;;;;;;;;;;;;;23.30;58.82;101011.97;5086878;28;1344;-64
2021/05/30 14:23:52;;;;;;;;;;;;;;;23.30;58.71;100998.69;5087732;28;1225;-65
2021/05/30 14:26:38;;;;;;;;;;;;;;;23.32;58.70;100996.75;5087248;28;1322;-65
2021/05/30 14:29:23;;;;;;;;;;;;;;;23.32;58.79;101004.72;5088412;28;1898;-64